Island Lake Airport
CYIV : now visible

Airfield :











YOU CAN JOIN US ON...

 
LOGIN :

Register | Disclaimer

   EN    FR    IT 

 









Legend :    VFR   Marginal VFR   IFR   Intensive IFR   Very Intensive IFR
Visi :
Ceiling :
>= 8 km
>= 3000ft
5 to 8 km
1000 to 3000 ft
1500m to 5 km
500 to 1000 ft
800 to 1500m
200 to 500 ft
< 800m
< 200 ft
Symbols :   Thunderstorms  Fog  Heavy snow  Heavy precipitations  Wind > 20 kt






- Airport Elevation : 770 ft
- IATA code : YIV


CYIV - Island Lake

CURRENT METAR :
  • 170300Z 24003KT 6SM -SN OVC060 M18/M21 A2997 RMK SC8 SLP181

EXPIRED METARs :
  • 170200Z 25005KT 6SM -SN OVC060 M17/M21 A2998 RMK SC8 SLP184
  • 170100Z CCA 19002KT 15SM -SN OVC066 M18/M24 A2997 RMK AS8 LAST STFD OB NEXT 15 1200 UTC SLP183

TAF TAF CYIV
Valid from the 17 at 01:00 until the 17 at 13:00 UTC


170038Z 1701/1713 VRB03KT P6SM BKN060
FM170300 VRB03KT 6SM -SN OVC040
TEMPO 1703/1713 2SM -SN OVC030 RMK NXT FCST BY 170700Z



MET'MAP, your aeronautical weather chart ! - Copyright ORBIFLY December 2007 - Disclaimer

ORBIFLY MET'MAP TEAM :

Programming & Development : Alexandra Zaïnal
Concept & original design : Baudouin d'Aumeries
Assistance for programming : Marc-Olivier Méhu
Technical & hardware support : Manuel Goepfert

Contact : metmap@orbifly.com




SOURCES & CREDITS :

   NOAA       Earth
Advisory